Hauptseite
METAR-TAF:

METAR-TAF

Flughäfen :

NATO-Flugplatz Geilenkirchen

Geilenkirchen, Deutschland

Breite: 50-57-39N, Länge: 006-2-33E, Höhe: 90 m

Beobachtung

Neuester Wetterbericht von vor 1 Stunde und 11 Minuten, um 03:50 UTC
Wind 4 kt aus Süd
Temperatur 7°C
Luftfeuchtigkeit 93%
Luftdruck 1026 hPa
Sichtweite 10 km oder mehr
keine Wolken unter 1500 m und keine Kumulonimbus oder Gewitterwolken

METAR: ETNG 070350Z 18004KT CAVOK 07/06 Q1026

Zeit: 07:01 (05:01 UTC)

Prognose

Neuester Wetterbericht von vor 3 Stunden und 1 Minuten, um 02:00 UTC
Gültige Prognose vom 07 um 03 UTC bis 07 um 18 UTC
Wind 5 kt aus Süd
Sichtweite 10 km oder mehr
keine Wolken unter 1500 m und keine Kumulonimbus oder Gewitterwolken
Übergehend zu
vom 07 um 08 UTC bis 07 um 10 UTC
Wind 8 kt aus Südwest, Böen bis zu 15 kt

TAF: ETNG 070200Z 0703/0718 18005KT CAVOK BECMG 0708/0710 23008G15KT

Wetterbeobachtungen und Prognosen von mehr als 4000 Flughäfen (METAR und TAF Bericht).

Die verfügbaren Stationen werden durch gelbe und rote Markierungen auf der Karte dargestellt.

Führen Sie die Maus auf sie, um den Namen der Station zu sehen.

Darauf klicken, um die Beobachtung von Wetterbeobachtungen und Prognosen zu sehen.

Um die Karte zu ändern : klicken Sie auf den grünen Tasten mit einem schwarzen Kreuz Zum Vergrößern, auf den grünen Button mit einem Gedankenstrich zu verkleinern, oder auf die grünen Pfeile für benachbarte Karten.


METAR-TAF: